sensor_id;sensor_type;location;lat;lon;timestamp;P1;durP1;ratioP1;P2;durP2;ratioP2
49502;SDS011;35409;48.776;9.204;2023-04-03T00:00:57;5.35;;;2.78;;
49502;SDS011;35409;48.776;9.204;2023-04-03T00:03:22;5.22;;;2.67;;
49502;SDS011;35409;48.776;9.204;2023-04-03T00:05:49;3.45;;;2.20;;
49502;SDS011;35409;48.776;9.204;2023-04-03T00:08:16;5.90;;;2.28;;
49502;SDS011;35409;48.776;9.204;2023-04-03T00:10:42;4.88;;;2.72;;
49502;SDS011;35409;48.776;9.204;2023-04-03T00:13:08;3.58;;;2.67;;
49502;SDS011;35409;48.776;9.204;2023-04-03T00:15:35;6.35;;;2.92;;
49502;SDS011;35409;48.776;9.204;2023-04-03T00:18:02;4.22;;;2.58;;
49502;SDS011;35409;48.776;9.204;2023-04-03T00:20:28;6.15;;;2.35;;
49502;SDS011;35409;48.776;9.204;2023-04-03T00:22:54;3.28;;;2.28;;
49502;SDS011;35409;48.776;9.204;2023-04-03T00:25:20;5.72;;;2.40;;
49502;SDS011;35409;48.776;9.204;2023-04-03T00:27:46;2.90;;;2.50;;
49502;SDS011;35409;48.776;9.204;2023-04-03T00:30:16;4.93;;;2.53;;
49502;SDS011;35409;48.776;9.204;2023-04-03T00:32:42;3.97;;;2.58;;
49502;SDS011;35409;48.776;9.204;2023-04-03T00:35:09;5.13;;;3.17;;
49502;SDS011;35409;48.776;9.204;2023-04-03T00:37:35;5.60;;;2.92;;
49502;SDS011;35409;48.776;9.204;2023-04-03T00:40:02;5.18;;;2.63;;
49502;SDS011;35409;48.776;9.204;2023-04-03T00:42:28;3.22;;;2.63;;
49502;SDS011;35409;48.776;9.204;2023-04-03T00:47:25;5.03;;;2.40;;
49502;SDS011;35409;48.776;9.204;2023-04-03T00:49:51;2.92;;;2.60;;
49502;SDS011;35409;48.776;9.204;2023-04-03T00:52:18;4.45;;;2.63;;
49502;SDS011;35409;48.776;9.204;2023-04-03T00:54:46;4.15;;;2.35;;
49502;SDS011;35409;48.776;9.204;2023-04-03T00:57:13;4.05;;;2.55;;
49502;SDS011;35409;48.776;9.204;2023-04-03T00:59:41;4.90;;;2.70;;
49502;SDS011;35409;48.776;9.204;2023-04-03T01:02:09;6.65;;;2.72;;
49502;SDS011;35409;48.776;9.204;2023-04-03T01:04:36;4.55;;;2.55;;
49502;SDS011;35409;48.776;9.204;2023-04-03T01:07:12;4.45;;;2.95;;
49502;SDS011;35409;48.776;9.204;2023-04-03T01:09:40;2.75;;;2.50;;
49502;SDS011;35409;48.776;9.204;2023-04-03T01:12:26;3.15;;;2.55;;
49502;SDS011;35409;48.776;9.204;2023-04-03T01:14:56;5.25;;;3.17;;
49502;SDS011;35409;48.776;9.204;2023-04-03T01:17:42;3.53;;;2.75;;
49502;SDS011;35409;48.776;9.204;2023-04-03T01:22:35;4.15;;;2.50;;
49502;SDS011;35409;48.776;9.204;2023-04-03T01:25:06;3.67;;;2.40;;
49502;SDS011;35409;48.776;9.204;2023-04-03T01:27:32;7.07;;;3.08;;
49502;SDS011;35409;48.776;9.204;2023-04-03T01:29:58;5.28;;;2.70;;
49502;SDS011;35409;48.776;9.204;2023-04-03T01:32:24;6.90;;;2.67;;
49502;SDS011;35409;48.776;9.204;2023-04-03T01:34:50;3.10;;;2.38;;
49502;SDS011;35409;48.776;9.204;2023-04-03T01:37:16;7.50;;;2.95;;
49502;SDS011;35409;48.776;9.204;2023-04-03T01:39:42;3.67;;;2.60;;
49502;SDS011;35409;48.776;9.204;2023-04-03T01:42:08;4.60;;;3.03;;
49502;SDS011;35409;48.776;9.204;2023-04-03T01:44:36;3.95;;;2.80;;
49502;SDS011;35409;48.776;9.204;2023-04-03T01:47:02;5.75;;;2.88;;
49502;SDS011;35409;48.776;9.204;2023-04-03T01:49:31;5.30;;;2.75;;
49502;SDS011;35409;48.776;9.204;2023-04-03T01:51:57;6.55;;;3.00;;
49502;SDS011;35409;48.776;9.204;2023-04-03T01:54:22;5.15;;;3.15;;
49502;SDS011;35409;48.776;9.204;2023-04-03T01:56:48;4.47;;;2.95;;
49502;SDS011;35409;48.776;9.204;2023-04-03T01:59:15;4.10;;;2.70;;
49502;SDS011;35409;48.776;9.204;2023-04-03T02:01:42;5.85;;;3.03;;
49502;SDS011;35409;48.776;9.204;2023-04-03T02:04:10;5.13;;;2.55;;
49502;SDS011;35409;48.776;9.204;2023-04-03T02:06:36;3.33;;;2.50;;
49502;SDS011;35409;48.776;9.204;2023-04-03T02:09:02;5.93;;;3.17;;
49502;SDS011;35409;48.776;9.204;2023-04-03T02:11:29;3.35;;;2.40;;
49502;SDS011;35409;48.776;9.204;2023-04-03T02:13:55;4.82;;;2.70;;
49502;SDS011;35409;48.776;9.204;2023-04-03T02:16:20;3.53;;;2.80;;
49502;SDS011;35409;48.776;9.204;2023-04-03T02:18:46;3.28;;;2.65;;
49502;SDS011;35409;48.776;9.204;2023-04-03T02:21:12;5.10;;;2.88;;
49502;SDS011;35409;48.776;9.204;2023-04-03T02:23:39;4.97;;;2.63;;
49502;SDS011;35409;48.776;9.204;2023-04-03T02:26:05;3.85;;;2.83;;
49502;SDS011;35409;48.776;9.204;2023-04-03T02:28:32;4.82;;;3.05;;
49502;SDS011;35409;48.776;9.204;2023-04-03T02:30:58;3.92;;;2.40;;
49502;SDS011;35409;48.776;9.204;2023-04-03T02:33:24;4.93;;;3.17;;
49502;SDS011;35409;48.776;9.204;2023-04-03T02:35:58;4.43;;;2.90;;
49502;SDS011;35409;48.776;9.204;2023-04-03T02:38:24;6.32;;;2.85;;
49502;SDS011;35409;48.776;9.204;2023-04-03T02:40:50;6.57;;;3.17;;
49502;SDS011;35409;48.776;9.204;2023-04-03T02:43:16;5.43;;;3.00;;
49502;SDS011;35409;48.776;9.204;2023-04-03T02:45:43;5.38;;;2.45;;
49502;SDS011;35409;48.776;9.204;2023-04-03T02:48:08;4.07;;;2.72;;
49502;SDS011;35409;48.776;9.204;2023-04-03T02:50:34;6.40;;;2.85;;
49502;SDS011;35409;48.776;9.204;2023-04-03T02:53:00;3.75;;;2.55;;
49502;SDS011;35409;48.776;9.204;2023-04-03T02:55:25;6.32;;;2.90;;
49502;SDS011;35409;48.776;9.204;2023-04-03T02:57:51;4.07;;;2.85;;
49502;SDS011;35409;48.776;9.204;2023-04-03T03:00:17;3.38;;;2.58;;
49502;SDS011;35409;48.776;9.204;2023-04-03T03:02:42;4.30;;;2.40;;
49502;SDS011;35409;48.776;9.204;2023-04-03T03:05:08;3.45;;;2.50;;
49502;SDS011;35409;48.776;9.204;2023-04-03T03:07:34;4.47;;;2.63;;
49502;SDS011;35409;48.776;9.204;2023-04-03T03:09:59;3.13;;;2.33;;
49502;SDS011;35409;48.776;9.204;2023-04-03T03:12:25;6.75;;;2.75;;
49502;SDS011;35409;48.776;9.204;2023-04-03T03:14:51;3.50;;;2.50;;
49502;SDS011;35409;48.776;9.204;2023-04-03T03:17:16;5.60;;;2.38;;
49502;SDS011;35409;48.776;9.204;2023-04-03T03:19:42;3.78;;;2.67;;
49502;SDS011;35409;48.776;9.204;2023-04-03T03:22:08;5.43;;;2.50;;
49502;SDS011;35409;48.776;9.204;2023-04-03T03:24:34;5.50;;;2.72;;
49502;SDS011;35409;48.776;9.204;2023-04-03T03:26:59;3.25;;;2.40;;
49502;SDS011;35409;48.776;9.204;2023-04-03T03:29:25;4.50;;;2.55;;
49502;SDS011;35409;48.776;9.204;2023-04-03T03:31:50;5.10;;;2.30;;
49502;SDS011;35409;48.776;9.204;2023-04-03T03:34:16;5.13;;;2.55;;
49502;SDS011;35409;48.776;9.204;2023-04-03T03:36:42;4.47;;;2.60;;
49502;SDS011;35409;48.776;9.204;2023-04-03T03:39:07;4.82;;;2.97;;
49502;SDS011;35409;48.776;9.204;2023-04-03T03:41:33;5.22;;;2.70;;
49502;SDS011;35409;48.776;9.204;2023-04-03T03:43:58;5.82;;;2.75;;
49502;SDS011;35409;48.776;9.204;2023-04-03T03:46:24;4.80;;;2.95;;
49502;SDS011;35409;48.776;9.204;2023-04-03T03:48:50;4.72;;;2.58;;
49502;SDS011;35409;48.776;9.204;2023-04-03T03:51:15;3.15;;;2.47;;
49502;SDS011;35409;48.776;9.204;2023-04-03T03:53:41;5.35;;;2.38;;
49502;SDS011;35409;48.776;9.204;2023-04-03T03:56:07;4.53;;;2.53;;
49502;SDS011;35409;48.776;9.204;2023-04-03T03:58:32;3.95;;;2.40;;
49502;SDS011;35409;48.776;9.204;2023-04-03T04:01:05;4.90;;;2.40;;
49502;SDS011;35409;48.776;9.204;2023-04-03T04:03:32;4.22;;;2.78;;
49502;SDS011;35409;48.776;9.204;2023-04-03T04:05:58;5.68;;;2.83;;
49502;SDS011;35409;48.776;9.204;2023-04-03T04:08:23;4.45;;;2.42;;
49502;SDS011;35409;48.776;9.204;2023-04-03T04:10:49;6.18;;;2.15;;
49502;SDS011;35409;48.776;9.204;2023-04-03T04:13:15;3.78;;;2.67;;
49502;SDS011;35409;48.776;9.204;2023-04-03T04:15:41;4.32;;;2.72;;
49502;SDS011;35409;48.776;9.204;2023-04-03T04:18:07;7.10;;;3.10;;
49502;SDS011;35409;48.776;9.204;2023-04-03T04:20:33;3.78;;;2.60;;
49502;SDS011;35409;48.776;9.204;2023-04-03T04:22:58;6.40;;;2.65;;
49502;SDS011;35409;48.776;9.204;2023-04-03T04:25:24;6.57;;;2.28;;
49502;SDS011;35409;48.776;9.204;2023-04-03T04:27:50;4.88;;;2.45;;
49502;SDS011;35409;48.776;9.204;2023-04-03T04:30:16;5.63;;;2.78;;
49502;SDS011;35409;48.776;9.204;2023-04-03T04:32:41;4.82;;;2.55;;
49502;SDS011;35409;48.776;9.204;2023-04-03T04:35:07;6.10;;;2.67;;
49502;SDS011;35409;48.776;9.204;2023-04-03T04:37:33;4.65;;;2.72;;
49502;SDS011;35409;48.776;9.204;2023-04-03T04:39:59;8.65;;;2.78;;
49502;SDS011;35409;48.776;9.204;2023-04-03T04:42:24;6.00;;;2.80;;
49502;SDS011;35409;48.776;9.204;2023-04-03T04:44:50;4.63;;;2.55;;
49502;SDS011;35409;48.776;9.204;2023-04-03T04:47:16;4.05;;;2.35;;
49502;SDS011;35409;48.776;9.204;2023-04-03T04:49:41;4.05;;;2.20;;
49502;SDS011;35409;48.776;9.204;2023-04-03T04:52:07;4.57;;;2.30;;
49502;SDS011;35409;48.776;9.204;2023-04-03T04:54:32;5.68;;;2.60;;
49502;SDS011;35409;48.776;9.204;2023-04-03T04:56:58;8.23;;;2.67;;
49502;SDS011;35409;48.776;9.204;2023-04-03T04:59:24;5.03;;;3.00;;
49502;SDS011;35409;48.776;9.204;2023-04-03T05:01:49;4.55;;;2.15;;
49502;SDS011;35409;48.776;9.204;2023-04-03T05:04:15;3.78;;;2.22;;
49502;SDS011;35409;48.776;9.204;2023-04-03T05:06:41;2.70;;;1.75;;
49502;SDS011;35409;48.776;9.204;2023-04-03T05:09:07;3.78;;;2.03;;
49502;SDS011;35409;48.776;9.204;2023-04-03T05:11:33;2.10;;;1.90;;
49502;SDS011;35409;48.776;9.204;2023-04-03T05:13:59;6.05;;;2.50;;
49502;SDS011;35409;48.776;9.204;2023-04-03T05:16:25;7.38;;;2.40;;
49502;SDS011;35409;48.776;9.204;2023-04-03T05:18:51;5.45;;;2.58;;
49502;SDS011;35409;48.776;9.204;2023-04-03T05:21:16;6.53;;;2.45;;
49502;SDS011;35409;48.776;9.204;2023-04-03T05:23:43;5.28;;;2.58;;
49502;SDS011;35409;48.776;9.204;2023-04-03T05:26:09;3.55;;;1.98;;
49502;SDS011;35409;48.776;9.204;2023-04-03T05:28:34;7.53;;;2.20;;
49502;SDS011;35409;48.776;9.204;2023-04-03T05:31:01;3.33;;;2.47;;
49502;SDS011;35409;48.776;9.204;2023-04-03T05:33:27;6.43;;;2.40;;
49502;SDS011;35409;48.776;9.204;2023-04-03T05:35:53;3.30;;;2.20;;
49502;SDS011;35409;48.776;9.204;2023-04-03T05:38:19;3.45;;;2.28;;
49502;SDS011;35409;48.776;9.204;2023-04-03T05:40:45;3.58;;;2.63;;
49502;SDS011;35409;48.776;9.204;2023-04-03T05:43:11;4.32;;;2.40;;
49502;SDS011;35409;48.776;9.204;2023-04-03T05:45:37;7.68;;;3.83;;
49502;SDS011;35409;48.776;9.204;2023-04-03T05:48:03;4.68;;;2.50;;
49502;SDS011;35409;48.776;9.204;2023-04-03T05:50:28;4.72;;;2.13;;
49502;SDS011;35409;48.776;9.204;2023-04-03T05:52:55;2.65;;;2.30;;
49502;SDS011;35409;48.776;9.204;2023-04-03T05:55:23;3.95;;;2.80;;
49502;SDS011;35409;48.776;9.204;2023-04-03T05:57:49;6.72;;;3.03;;
49502;SDS011;35409;48.776;9.204;2023-04-03T06:00:15;5.63;;;2.50;;
49502;SDS011;35409;48.776;9.204;2023-04-03T06:02:41;3.38;;;2.58;;
49502;SDS011;35409;48.776;9.204;2023-04-03T06:05:08;3.17;;;1.90;;
49502;SDS011;35409;48.776;9.204;2023-04-03T06:07:36;3.83;;;2.25;;
49502;SDS011;35409;48.776;9.204;2023-04-03T06:10:02;3.30;;;2.13;;
49502;SDS011;35409;48.776;9.204;2023-04-03T06:12:28;2.65;;;1.92;;
49502;SDS011;35409;48.776;9.204;2023-04-03T06:14:54;7.75;;;2.53;;
49502;SDS011;35409;48.776;9.204;2023-04-03T06:17:20;9.68;;;4.05;;
49502;SDS011;35409;48.776;9.204;2023-04-03T06:19:46;2.55;;;2.10;;
49502;SDS011;35409;48.776;9.204;2023-04-03T06:22:12;3.65;;;2.30;;
49502;SDS011;35409;48.776;9.204;2023-04-03T06:24:38;10.75;;;3.28;;
49502;SDS011;35409;48.776;9.204;2023-04-03T06:27:05;4.93;;;2.42;;
49502;SDS011;35409;48.776;9.204;2023-04-03T06:29:30;3.45;;;2.25;;
49502;SDS011;35409;48.776;9.204;2023-04-03T06:31:56;8.25;;;2.60;;
49502;SDS011;35409;48.776;9.204;2023-04-03T06:34:21;4.43;;;2.42;;
49502;SDS011;35409;48.776;9.204;2023-04-03T06:36:47;5.40;;;2.17;;
49502;SDS011;35409;48.776;9.204;2023-04-03T06:39:17;3.55;;;2.40;;
49502;SDS011;35409;48.776;9.204;2023-04-03T06:41:47;3.97;;;2.50;;
49502;SDS011;35409;48.776;9.204;2023-04-03T06:44:13;5.50;;;2.72;;
49502;SDS011;35409;48.776;9.204;2023-04-03T06:46:41;7.40;;;2.60;;
49502;SDS011;35409;48.776;9.204;2023-04-03T06:49:07;5.43;;;2.63;;
49502;SDS011;35409;48.776;9.204;2023-04-03T06:51:33;3.88;;;2.10;;
49502;SDS011;35409;48.776;9.204;2023-04-03T06:54:00;4.60;;;2.67;;
49502;SDS011;35409;48.776;9.204;2023-04-03T06:56:27;4.22;;;2.03;;
49502;SDS011;35409;48.776;9.204;2023-04-03T06:58:53;4.22;;;2.25;;
49502;SDS011;35409;48.776;9.204;2023-04-03T07:01:21;3.85;;;3.17;;
49502;SDS011;35409;48.776;9.204;2023-04-03T07:03:48;6.13;;;2.63;;
49502;SDS011;35409;48.776;9.204;2023-04-03T07:06:15;9.02;;;2.72;;
49502;SDS011;35409;48.776;9.204;2023-04-03T07:08:41;4.45;;;2.10;;
49502;SDS011;35409;48.776;9.204;2023-04-03T07:11:07;4.25;;;2.67;;
49502;SDS011;35409;48.776;9.204;2023-04-03T07:13:34;7.75;;;2.38;;
49502;SDS011;35409;48.776;9.204;2023-04-03T07:16:00;3.80;;;2.22;;
49502;SDS011;35409;48.776;9.204;2023-04-03T07:18:26;7.03;;;2.75;;
49502;SDS011;35409;48.776;9.204;2023-04-03T07:20:52;3.80;;;2.40;;
49502;SDS011;35409;48.776;9.204;2023-04-03T07:23:18;7.90;;;2.40;;
49502;SDS011;35409;48.776;9.204;2023-04-03T07:25:47;3.78;;;2.00;;
49502;SDS011;35409;48.776;9.204;2023-04-03T07:28:14;5.18;;;2.10;;
49502;SDS011;35409;48.776;9.204;2023-04-03T07:33:15;3.25;;;1.80;;
49502;SDS011;35409;48.776;9.204;2023-04-03T07:35:42;3.75;;;2.13;;
49502;SDS011;35409;48.776;9.204;2023-04-03T07:38:09;9.82;;;2.60;;
49502;SDS011;35409;48.776;9.204;2023-04-03T07:40:35;10.00;;;2.63;;
49502;SDS011;35409;48.776;9.204;2023-04-03T07:43:01;5.28;;;2.00;;
49502;SDS011;35409;48.776;9.204;2023-04-03T07:45:27;5.63;;;2.90;;
49502;SDS011;35409;48.776;9.204;2023-04-03T07:47:53;4.95;;;2.20;;
49502;SDS011;35409;48.776;9.204;2023-04-03T07:50:19;5.40;;;2.38;;
49502;SDS011;35409;48.776;9.204;2023-04-03T07:52:45;2.83;;;2.00;;
49502;SDS011;35409;48.776;9.204;2023-04-03T07:55:11;3.15;;;2.03;;
49502;SDS011;35409;48.776;9.204;2023-04-03T07:57:37;5.32;;;2.28;;
49502;SDS011;35409;48.776;9.204;2023-04-03T08:00:03;10.30;;;2.40;;
49502;SDS011;35409;48.776;9.204;2023-04-03T08:02:30;5.97;;;2.00;;
49502;SDS011;35409;48.776;9.204;2023-04-03T08:04:57;6.00;;;2.20;;
49502;SDS011;35409;48.776;9.204;2023-04-03T08:07:23;6.28;;;2.15;;
49502;SDS011;35409;48.776;9.204;2023-04-03T08:09:49;6.03;;;2.30;;
49502;SDS011;35409;48.776;9.204;2023-04-03T08:12:15;8.23;;;2.72;;
49502;SDS011;35409;48.776;9.204;2023-04-03T08:14:41;4.40;;;2.13;;
49502;SDS011;35409;48.776;9.204;2023-04-03T08:17:06;6.22;;;2.03;;
49502;SDS011;35409;48.776;9.204;2023-04-03T08:19:36;7.22;;;2.70;;
49502;SDS011;35409;48.776;9.204;2023-04-03T08:22:05;6.25;;;2.80;;
49502;SDS011;35409;48.776;9.204;2023-04-03T08:24:31;5.28;;;2.13;;
49502;SDS011;35409;48.776;9.204;2023-04-03T08:27:00;4.63;;;2.40;;
49502;SDS011;35409;48.776;9.204;2023-04-03T08:29:26;8.38;;;2.60;;
49502;SDS011;35409;48.776;9.204;2023-04-03T08:31:52;5.72;;;2.88;;
49502;SDS011;35409;48.776;9.204;2023-04-03T08:34:18;4.00;;;1.98;;
49502;SDS011;35409;48.776;9.204;2023-04-03T08:36:44;4.70;;;2.20;;
49502;SDS011;35409;48.776;9.204;2023-04-03T08:39:10;5.20;;;2.10;;
49502;SDS011;35409;48.776;9.204;2023-04-03T08:41:37;7.18;;;2.55;;
49502;SDS011;35409;48.776;9.204;2023-04-03T08:49:33;6.80;;;2.20;;
49502;SDS011;35409;48.776;9.204;2023-04-03T08:52:09;6.03;;;2.58;;
49502;SDS011;35409;48.776;9.204;2023-04-03T08:54:41;3.42;;;2.10;;
49502;SDS011;35409;48.776;9.204;2023-04-03T08:57:15;6.22;;;1.90;;
49502;SDS011;35409;48.776;9.204;2023-04-03T08:59:44;4.20;;;2.15;;
49502;SDS011;35409;48.776;9.204;2023-04-03T09:02:31;4.63;;;2.33;;
49502;SDS011;35409;48.776;9.204;2023-04-03T09:05:05;4.00;;;2.47;;
49502;SDS011;35409;48.776;9.204;2023-04-03T09:08:26;4.75;;;2.13;;
49502;SDS011;35409;48.776;9.204;2023-04-03T09:10:28;2.55;;;1.75;;
49502;SDS011;35409;48.776;9.204;2023-04-03T09:13:01;5.22;;;2.03;;
49502;SDS011;35409;48.776;9.204;2023-04-03T09:15:29;6.68;;;2.20;;
49502;SDS011;35409;48.776;9.204;2023-04-03T09:18:06;5.28;;;2.38;;
49502;SDS011;35409;48.776;9.204;2023-04-03T09:23:01;4.10;;;2.05;;
49502;SDS011;35409;48.776;9.204;2023-04-03T09:25:34;2.90;;;2.20;;
49502;SDS011;35409;48.776;9.204;2023-04-03T09:28:03;3.90;;;1.55;;
49502;SDS011;35409;48.776;9.204;2023-04-03T09:30:34;4.18;;;1.90;;
49502;SDS011;35409;48.776;9.204;2023-04-03T09:33:01;5.65;;;1.88;;
49502;SDS011;35409;48.776;9.204;2023-04-03T09:35:28;6.45;;;1.85;;
49502;SDS011;35409;48.776;9.204;2023-04-03T09:42:58;4.93;;;1.98;;
49502;SDS011;35409;48.776;9.204;2023-04-03T09:48:25;4.20;;;1.92;;
49502;SDS011;35409;48.776;9.204;2023-04-03T09:55:51;5.82;;;1.98;;
49502;SDS011;35409;48.776;9.204;2023-04-03T09:58:27;3.58;;;2.08;;
49502;SDS011;35409;48.776;9.204;2023-04-03T10:00:55;5.85;;;2.10;;
49502;SDS011;35409;48.776;9.204;2023-04-03T10:03:30;6.40;;;2.35;;
49502;SDS011;35409;48.776;9.204;2023-04-03T10:05:57;9.15;;;1.83;;
49502;SDS011;35409;48.776;9.204;2023-04-03T10:08:25;3.95;;;1.63;;
49502;SDS011;35409;48.776;9.204;2023-04-03T10:11:08;6.82;;;1.77;;
49502;SDS011;35409;48.776;9.204;2023-04-03T10:13:35;5.93;;;2.70;;
49502;SDS011;35409;48.776;9.204;2023-04-03T10:16:11;7.28;;;1.98;;
49502;SDS011;35409;48.776;9.204;2023-04-03T10:21:13;3.97;;;2.00;;
49502;SDS011;35409;48.776;9.204;2023-04-03T10:36:34;5.60;;;2.63;;
49502;SDS011;35409;48.776;9.204;2023-04-03T10:39:12;3.25;;;1.75;;
49502;SDS011;35409;48.776;9.204;2023-04-03T10:41:45;4.28;;;1.75;;
49502;SDS011;35409;48.776;9.204;2023-04-03T10:47:37;3.58;;;1.92;;
49502;SDS011;35409;48.776;9.204;2023-04-03T10:49:50;6.15;;;1.90;;
49502;SDS011;35409;48.776;9.204;2023-04-03T10:52:21;5.85;;;1.98;;
49502;SDS011;35409;48.776;9.204;2023-04-03T10:54:52;3.40;;;1.83;;
49502;SDS011;35409;48.776;9.204;2023-04-03T10:57:22;5.25;;;1.90;;
49502;SDS011;35409;48.776;9.204;2023-04-03T10:59:50;3.65;;;2.13;;
49502;SDS011;35409;48.776;9.204;2023-04-03T11:02:30;6.20;;;1.88;;
49502;SDS011;35409;48.776;9.204;2023-04-03T11:04:59;7.05;;;1.70;;
49502;SDS011;35409;48.776;9.204;2023-04-03T11:07:28;4.18;;;1.45;;
49502;SDS011;35409;48.776;9.204;2023-04-03T11:09:58;3.25;;;2.00;;
49502;SDS011;35409;48.776;9.204;2023-04-03T11:12:33;4.82;;;1.15;;
49502;SDS011;35409;48.776;9.204;2023-04-03T11:15:02;3.40;;;1.38;;
49502;SDS011;35409;48.776;9.204;2023-04-03T11:17:33;1.75;;;1.17;;
49502;SDS011;35409;48.776;9.204;2023-04-03T11:22:32;5.72;;;1.65;;
49502;SDS011;35409;48.776;9.204;2023-04-03T11:27:38;4.30;;;1.35;;
49502;SDS011;35409;48.776;9.204;2023-04-03T11:30:07;3.72;;;1.50;;
49502;SDS011;35409;48.776;9.204;2023-04-03T11:32:48;3.73;;;1.47;;
49502;SDS011;35409;48.776;9.204;2023-04-03T11:35:17;2.10;;;1.17;;
49502;SDS011;35409;48.776;9.204;2023-04-03T11:37:52;5.03;;;1.60;;
49502;SDS011;35409;48.776;9.204;2023-04-03T11:40:21;4.15;;;1.60;;
49502;SDS011;35409;48.776;9.204;2023-04-03T11:42:55;3.13;;;1.58;;
49502;SDS011;35409;48.776;9.204;2023-04-03T11:45:35;3.25;;;1.70;;
49502;SDS011;35409;48.776;9.204;2023-04-03T11:48:04;7.40;;;1.70;;
49502;SDS011;35409;48.776;9.204;2023-04-03T11:52:57;3.47;;;2.08;;
49502;SDS011;35409;48.776;9.204;2023-04-03T12:08:29;7.07;;;1.75;;
49502;SDS011;35409;48.776;9.204;2023-04-03T12:13:34;3.90;;;1.65;;
49502;SDS011;35409;48.776;9.204;2023-04-03T12:16:00;3.50;;;1.40;;
49502;SDS011;35409;48.776;9.204;2023-04-03T12:21:07;2.95;;;1.50;;
49502;SDS011;35409;48.776;9.204;2023-04-03T12:23:33;5.57;;;1.95;;
49502;SDS011;35409;48.776;9.204;2023-04-03T12:26:01;3.53;;;1.55;;
49502;SDS011;35409;48.776;9.204;2023-04-03T12:28:31;4.35;;;1.70;;
49502;SDS011;35409;48.776;9.204;2023-04-03T12:31:01;5.13;;;1.92;;
49502;SDS011;35409;48.776;9.204;2023-04-03T12:36:04;2.22;;;1.40;;
49502;SDS011;35409;48.776;9.204;2023-04-03T12:38:39;2.78;;;1.42;;
49502;SDS011;35409;48.776;9.204;2023-04-03T12:46:38;4.03;;;1.50;;
49502;SDS011;35409;48.776;9.204;2023-04-03T12:49:12;4.75;;;1.40;;
49502;SDS011;35409;48.776;9.204;2023-04-03T12:51:41;5.38;;;1.52;;
49502;SDS011;35409;48.776;9.204;2023-04-03T12:54:19;7.28;;;1.52;;
49502;SDS011;35409;48.776;9.204;2023-04-03T12:56:46;4.75;;;2.10;;
49502;SDS011;35409;48.776;9.204;2023-04-03T12:59:13;4.10;;;1.60;;
49502;SDS011;35409;48.776;9.204;2023-04-03T13:01:41;3.60;;;1.73;;
49502;SDS011;35409;48.776;9.204;2023-04-03T13:04:07;4.57;;;1.52;;
49502;SDS011;35409;48.776;9.204;2023-04-03T13:06:40;6.35;;;1.67;;
49502;SDS011;35409;48.776;9.204;2023-04-03T13:09:17;4.70;;;1.40;;
49502;SDS011;35409;48.776;9.204;2023-04-03T13:11:46;2.83;;;1.42;;
49502;SDS011;35409;48.776;9.204;2023-04-03T13:14:21;2.95;;;1.40;;
49502;SDS011;35409;48.776;9.204;2023-04-03T13:16:57;3.58;;;1.67;;
49502;SDS011;35409;48.776;9.204;2023-04-03T13:19:24;5.95;;;1.63;;
49502;SDS011;35409;48.776;9.204;2023-04-03T13:21:53;6.75;;;1.88;;
49502;SDS011;35409;48.776;9.204;2023-04-03T13:24:22;6.32;;;1.67;;
49502;SDS011;35409;48.776;9.204;2023-04-03T13:26:48;3.75;;;1.90;;
49502;SDS011;35409;48.776;9.204;2023-04-03T13:29:22;7.60;;;1.40;;
49502;SDS011;35409;48.776;9.204;2023-04-03T13:31:51;3.70;;;1.40;;
49502;SDS011;35409;48.776;9.204;2023-04-03T13:34:19;3.75;;;1.40;;
49502;SDS011;35409;48.776;9.204;2023-04-03T13:37:11;2.97;;;1.25;;
49502;SDS011;35409;48.776;9.204;2023-04-03T13:39:37;2.97;;;1.63;;
49502;SDS011;35409;48.776;9.204;2023-04-03T13:44:33;4.78;;;1.52;;
49502;SDS011;35409;48.776;9.204;2023-04-03T13:47:20;2.55;;;1.20;;
49502;SDS011;35409;48.776;9.204;2023-04-03T13:52:32;5.10;;;1.30;;
49502;SDS011;35409;48.776;9.204;2023-04-03T13:55:18;7.07;;;1.60;;
49502;SDS011;35409;48.776;9.204;2023-04-03T14:05:51;4.78;;;1.67;;
49502;SDS011;35409;48.776;9.204;2023-04-03T14:08:19;4.57;;;1.60;;
49502;SDS011;35409;48.776;9.204;2023-04-03T14:10:45;2.50;;;1.60;;
49502;SDS011;35409;48.776;9.204;2023-04-03T14:13:15;5.18;;;1.63;;
49502;SDS011;35409;48.776;9.204;2023-04-03T14:15:42;1.85;;;1.52;;
49502;SDS011;35409;48.776;9.204;2023-04-03T14:18:10;3.95;;;1.80;;
49502;SDS011;35409;48.776;9.204;2023-04-03T14:20:37;3.00;;;1.42;;
49502;SDS011;35409;48.776;9.204;2023-04-03T14:23:03;3.03;;;1.90;;
49502;SDS011;35409;48.776;9.204;2023-04-03T14:25:29;4.18;;;1.73;;
49502;SDS011;35409;48.776;9.204;2023-04-03T14:27:55;5.15;;;1.88;;
49502;SDS011;35409;48.776;9.204;2023-04-03T14:30:31;4.15;;;1.80;;
49502;SDS011;35409;48.776;9.204;2023-04-03T14:32:57;4.65;;;1.60;;
49502;SDS011;35409;48.776;9.204;2023-04-03T14:35:23;4.72;;;1.75;;
49502;SDS011;35409;48.776;9.204;2023-04-03T14:37:50;4.40;;;1.55;;
49502;SDS011;35409;48.776;9.204;2023-04-03T14:40:22;6.13;;;1.83;;
49502;SDS011;35409;48.776;9.204;2023-04-03T14:42:50;4.43;;;1.52;;
49502;SDS011;35409;48.776;9.204;2023-04-03T14:45:22;6.28;;;1.88;;
49502;SDS011;35409;48.776;9.204;2023-04-03T14:47:50;5.72;;;2.15;;
49502;SDS011;35409;48.776;9.204;2023-04-03T14:50:19;2.63;;;1.67;;
49502;SDS011;35409;48.776;9.204;2023-04-03T14:52:47;2.90;;;1.47;;
49502;SDS011;35409;48.776;9.204;2023-04-03T14:55:15;3.80;;;1.63;;
49502;SDS011;35409;48.776;9.204;2023-04-03T14:57:42;3.05;;;1.58;;
49502;SDS011;35409;48.776;9.204;2023-04-03T15:00:12;3.47;;;1.60;;
49502;SDS011;35409;48.776;9.204;2023-04-03T15:02:40;2.63;;;1.42;;
49502;SDS011;35409;48.776;9.204;2023-04-03T15:05:07;5.53;;;1.55;;
49502;SDS011;35409;48.776;9.204;2023-04-03T15:07:35;3.08;;;1.40;;
49502;SDS011;35409;48.776;9.204;2023-04-03T15:10:14;3.45;;;1.60;;
49502;SDS011;35409;48.776;9.204;2023-04-03T15:12:43;3.67;;;1.65;;
49502;SDS011;35409;48.776;9.204;2023-04-03T15:15:09;3.45;;;1.67;;
49502;SDS011;35409;48.776;9.204;2023-04-03T15:17:34;4.45;;;1.95;;
49502;SDS011;35409;48.776;9.204;2023-04-03T15:20:02;4.85;;;1.77;;
49502;SDS011;35409;48.776;9.204;2023-04-03T15:22:28;5.05;;;1.63;;
49502;SDS011;35409;48.776;9.204;2023-04-03T15:24:53;9.15;;;2.60;;
49502;SDS011;35409;48.776;9.204;2023-04-03T15:27:19;4.15;;;1.77;;
49502;SDS011;35409;48.776;9.204;2023-04-03T15:29:45;3.80;;;1.58;;
49502;SDS011;35409;48.776;9.204;2023-04-03T15:32:11;5.13;;;1.73;;
49502;SDS011;35409;48.776;9.204;2023-04-03T15:34:37;5.05;;;2.30;;
49502;SDS011;35409;48.776;9.204;2023-04-03T15:37:04;6.65;;;2.88;;
49502;SDS011;35409;48.776;9.204;2023-04-03T15:39:30;4.70;;;2.45;;
49502;SDS011;35409;48.776;9.204;2023-04-03T15:41:56;4.07;;;1.67;;
49502;SDS011;35409;48.776;9.204;2023-04-03T15:44:24;4.18;;;2.00;;
49502;SDS011;35409;48.776;9.204;2023-04-03T15:46:50;4.22;;;1.60;;
49502;SDS011;35409;48.776;9.204;2023-04-03T15:49:16;2.58;;;1.63;;
49502;SDS011;35409;48.776;9.204;2023-04-03T15:51:43;8.27;;;2.00;;
49502;SDS011;35409;48.776;9.204;2023-04-03T15:54:08;4.18;;;1.65;;
49502;SDS011;35409;48.776;9.204;2023-04-03T15:56:34;5.55;;;1.40;;
49502;SDS011;35409;48.776;9.204;2023-04-03T15:59:00;2.83;;;1.50;;
49502;SDS011;35409;48.776;9.204;2023-04-03T16:01:26;6.07;;;2.30;;
49502;SDS011;35409;48.776;9.204;2023-04-03T16:03:51;6.63;;;1.83;;
49502;SDS011;35409;48.776;9.204;2023-04-03T16:06:17;3.50;;;1.70;;
49502;SDS011;35409;48.776;9.204;2023-04-03T16:08:43;3.33;;;1.40;;
49502;SDS011;35409;48.776;9.204;2023-04-03T16:11:11;3.90;;;1.60;;
49502;SDS011;35409;48.776;9.204;2023-04-03T16:13:37;1.65;;;1.35;;
49502;SDS011;35409;48.776;9.204;2023-04-03T16:16:03;5.97;;;1.80;;
49502;SDS011;35409;48.776;9.204;2023-04-03T16:18:29;4.50;;;1.80;;
49502;SDS011;35409;48.776;9.204;2023-04-03T16:20:55;3.88;;;2.03;;
49502;SDS011;35409;48.776;9.204;2023-04-03T16:23:22;2.58;;;1.38;;
49502;SDS011;35409;48.776;9.204;2023-04-03T16:25:47;3.92;;;1.52;;